Eddyville, Illinois
Current Conditions -  °F | °C
As of 9:15 PM on Monday 20 Oct 2014 (Local Time) from KHSB Reporting Station
Clear Clear  
Wind Chill: 59°   Ceiling: Unl
Heat Index: 59°   Visibility: 10mi
Dew Point: 44°   Wind: 6mph
Humidity: 57%   Direction: 320°NW
Pressure: 30"   Gusts: NA
Location:  37.5°N, 88.59°W
Report Text: KHSB 210215Z AUTO 32005KT 10SM CLR 15/07 A3000 RMK AO2 T01500066
Loading
Personal Weather Stations






























Interactive Weather Map
Tropical Storm Tracking
New forecast layout! Learn more

10-Day Weather Forecast

Advertisements
Track Severe Weather on mobile